ENMS/MJF METAR and TAF weather

Enter ICAO airport designator
Station Type Date Time Source
ENMS METAR 2018/04/26 20:20 UTC NOAA

ENMS 262020Z 15004KT 120V190 9999 SCT029 BKN050 05/M00 Q0999 RMK WIND 412FT VRB05KT


Station Type Date Time Source
ENMS Decoded METAR 2018/04/26 20:20 UTC NOAA

Mosjoen Kjaerstad, Norway (ENMS) 65-48N 013-08E
Apr 26, 2018 - 04:20 PM EDT / 2018.04.26 2020 UTC
Wind: from the SSE (150 degrees) at 5 MPH (4 KT) (direction variable):0
Visibility: greater than 7 mile(s):0
Sky conditions: mostly cloudy
Temperature: 41 F (5 C)
Dew Point: 32 F (0 C)
Relative Humidity: 70%
Pressure (altimeter): 29.50 in. Hg (0999 hPa)
ob: ENMS 262020Z 15004KT 120V190 9999 SCT029 BKN050 05/M00 Q0999 RMK WIND 412FT VRB05KT
cycle: 20

Station Type Date Time Source
ENMS TAF UTC NOAA

Error!


Example: see airport list